Time;durP1;ratioP1;P1;durP2;ratioP2;P2;SDS_P1;SDS_P2;PMS_P1;PMS_P2;Temp;Humidity;BMP_temperature;BMP_pressure;BME280_temperature;BME280_humidity;BME280_pressure;Samples;Min_cycle;Max_cycle;Signal;HPM_P1;HPM_P2
2023/08/18 00:01:05;;;;;;;5.07;1.40;;;15.10;99.90;;;;;;1927267;72;25223;-89
2023/08/18 00:03:54;;;;;;;1.83;1.40;;;15.30;99.90;;;;;;1942480;72;25208;-89
2023/08/18 00:06:43;;;;;;;4.53;1.50;;;15.30;99.90;;;;;;1842516;76;25199;-89
2023/08/18 00:09:32;;;;;;;5.90;1.40;;;15.20;99.90;;;;;;1878323;76;25231;-89
2023/08/18 00:12:21;;;;;;;1.53;1.30;;;15.30;99.90;;;;;;1867287;76;25284;-89
2023/08/18 00:15:11;;;;;;;2.60;1.67;;;15.30;99.90;;;;;;1900747;72;25230;-89
2023/08/18 00:18:00;;;;;;;1.70;1.40;;;15.40;99.90;;;;;;1922009;73;25173;-89
2023/08/18 00:24:03;;;;;;;4.07;1.70;;;15.50;99.90;;;;;;1984155;71;26940;-89
2023/08/18 00:29:45;;;;;;;1.40;1.30;;;15.60;99.90;;;;;;1939841;72;26904;-88
2023/08/18 00:32:34;;;;;;;3.60;1.40;;;15.60;99.90;;;;;;1924110;73;25179;-88
2023/08/18 00:35:23;;;;;;;4.40;1.30;;;15.60;99.90;;;;;;1932921;73;25386;-90
2023/08/18 00:40:57;;;;;;;5.17;1.63;;;15.70;99.90;;;;;;1946844;72;27034;-89
2023/08/18 00:43:46;;;;;;;4.33;1.63;;;15.60;99.90;;;;;;1918800;73;25310;-89
2023/08/18 00:46:35;;;;;;;2.20;1.30;;;15.60;99.90;;;;;;1919887;73;25806;-89
2023/08/18 00:49:25;;;;;;;6.20;1.50;;;15.60;99.90;;;;;;1916514;73;25182;-89
2023/08/18 00:52:14;;;;;;;1.50;1.40;;;15.60;99.90;;;;;;1920589;73;25208;-89
2023/08/18 00:55:02;;;;;;;3.30;1.30;;;15.60;99.90;;;;;;1925897;73;25335;-88
2023/08/18 00:57:51;;;;;;;2.43;1.70;;;15.60;99.90;;;;;;1923185;73;25237;-88
2023/08/18 01:00:41;;;;;;;2.50;1.50;;;15.60;99.90;;;;;;1922104;73;25182;-89
2023/08/18 01:03:30;;;;;;;4.97;1.50;;;15.60;99.90;;;;;;1925287;73;25349;-88
2023/08/18 01:06:19;;;;;;;4.10;1.70;;;15.60;99.90;;;;;;1924348;73;25257;-88
2023/08/18 01:12:09;;;;;;;5.90;1.80;;;15.60;99.90;;;;;;1948113;71;26950;-89
2023/08/18 01:17:56;;;;;;;8.33;1.97;;;15.70;99.90;;;;;;1945961;72;26658;-88
2023/08/18 01:20:45;;;;;;;3.13;1.73;;;15.60;99.90;;;;;;1928303;73;25238;-90
2023/08/18 01:23:40;;;;;;;4.07;1.90;;;15.60;99.90;;;;;;1883490;75;25285;-90
2023/08/18 01:29:23;;;;;;;4.37;1.77;;;15.60;99.90;;;;;;1983116;71;27145;-88
2023/08/18 01:35:03;;;;;;;6.20;1.80;;;15.50;99.90;;;;;;1953038;72;27332;-89
2023/08/18 01:37:54;;;;;;;6.57;1.80;;;15.50;99.90;;;;;;1920579;73;25254;-89
2023/08/18 01:40:44;;;;;;;3.97;1.70;;;15.50;99.90;;;;;;1918554;73;25287;-89
2023/08/18 01:43:34;;;;;;;1.80;1.70;;;15.60;99.90;;;;;;1888820;74;25188;-89
2023/08/18 01:46:23;;;;;;;7.27;1.93;;;15.60;99.90;;;;;;1893679;75;25706;-88
2023/08/18 01:49:11;;;;;;;2.00;1.80;;;15.50;99.90;;;;;;1878708;75;25292;-89
2023/08/18 01:51:59;;;;;;;2.57;1.80;;;15.50;99.90;;;;;;1908413;74;25189;-89
2023/08/18 01:54:50;;;;;;;2.70;1.83;;;15.50;99.90;;;;;;1904831;74;25172;-89
2023/08/18 01:57:39;;;;;;;3.50;1.87;;;15.50;99.90;;;;;;1914848;74;25266;-89
2023/08/18 02:00:28;;;;;;;4.10;1.83;;;15.50;99.90;;;;;;1906849;74;25702;-89
2023/08/18 02:03:16;;;;;;;4.07;2.00;;;15.50;99.90;;;;;;1902416;75;25197;-89
2023/08/18 02:08:51;;;;;;;2.93;1.87;;;15.40;99.90;;;;;;1967475;71;26915;-88
2023/08/18 02:15:29;;;;;;;3.40;2.00;;;15.30;99.90;;;;;;2002975;71;26709;-89
2023/08/18 02:18:17;;;;;;;2.83;1.83;;;15.20;99.90;;;;;;1993818;70;25674;-89
2023/08/18 02:21:06;;;;;;;6.50;2.67;;;15.30;99.90;;;;;;1992582;71;25212;-89
2023/08/18 02:28:08;;;;;;;2.50;1.90;;;15.30;99.90;;;;;;1960707;71;26294;-89
2023/08/18 02:31:02;;;;;;;5.70;2.00;;;15.30;99.90;;;;;;1996608;70;25631;-89
2023/08/18 02:33:51;;;;;;;6.73;1.90;;;15.30;99.90;;;;;;1996490;72;25732;-89
2023/08/18 02:39:29;;;;;;;8.87;2.10;;;15.30;99.90;;;;;;1945081;72;26970;-89
2023/08/18 02:42:19;;;;;;;3.87;2.07;;;15.20;99.90;;;;;;1911462;73;25266;-89
2023/08/18 02:45:09;;;;;;;2.80;1.80;;;15.20;99.90;;;;;;1921643;73;25174;-89
2023/08/18 02:50:41;;;;;;;2.90;1.73;;;15.20;99.90;;;;;;2012583;69;26977;-89
2023/08/18 02:53:30;;;;;;;6.10;1.93;;;15.20;99.90;;;;;;1971570;72;25344;-88
2023/08/18 02:56:18;;;;;;;4.70;2.20;;;15.20;99.90;;;;;;1938467;73;25706;-88
2023/08/18 02:59:07;;;;;;;3.87;2.20;;;15.20;99.90;;;;;;1959273;72;25199;-89
2023/08/18 03:01:55;;;;;;;3.70;2.50;;;15.10;99.90;;;;;;1959774;72;25813;-89
2023/08/18 03:04:44;;;;;;;3.90;2.30;;;15.20;99.90;;;;;;1964891;72;25716;-89
2023/08/18 03:07:33;;;;;;;6.23;1.83;;;15.20;99.90;;;;;;1963575;72;25207;-89
2023/08/18 03:10:22;;;;;;;6.53;2.10;;;15.20;99.90;;;;;;1949723;72;25254;-88
2023/08/18 03:13:11;;;;;;;7.13;2.13;;;15.10;99.90;;;;;;1974661;72;25169;-88
2023/08/18 03:16:00;;;;;;;4.17;1.90;;;15.10;99.90;;;;;;1973910;72;25182;-88
2023/08/18 03:18:49;;;;;;;4.47;2.17;;;15.10;99.90;;;;;;1948246;72;25256;-88
2023/08/18 03:21:38;;;;;;;7.90;2.20;;;15.10;99.90;;;;;;1921741;74;25857;-88
2023/08/18 03:24:28;;;;;;;6.20;2.17;;;15.10;99.90;;;;;;1896597;74;25315;-88
2023/08/18 03:27:17;;;;;;;6.27;2.00;;;15.10;99.90;;;;;;1881000;75;25822;-88
2023/08/18 03:30:08;;;;;;;8.57;2.00;;;15.00;99.90;;;;;;1883170;75;25316;-88
2023/08/18 03:35:36;;;;;;;4.20;2.10;;;15.00;99.90;;;;;;1943074;72;26981;-88
2023/08/18 03:38:26;;;;;;;5.73;2.20;;;15.00;99.90;;;;;;1892253;74;25255;-88
2023/08/18 03:41:15;;;;;;;9.37;2.30;;;15.10;99.90;;;;;;1890455;74;25272;-88
2023/08/18 03:44:04;;;;;;;4.00;2.00;;;15.10;99.90;;;;;;1888745;75;25225;-88
2023/08/18 03:46:53;;;;;;;3.43;1.87;;;15.10;99.90;;;;;;1886721;75;25289;-88
2023/08/18 03:49:42;;;;;;;3.47;2.20;;;15.10;99.90;;;;;;1908854;75;25174;-88
2023/08/18 04:21:05;;;;;;;3.27;1.77;;;15.10;99.90;;;;;;1920399;74;27205;-89
2023/08/18 04:26:47;;;;;;;4.20;2.10;;;15.80;99.90;;;;;;1950522;72;26985;-88
2023/08/18 04:29:36;;;;;;;5.20;1.80;;;15.70;99.90;;;;;;1909765;73;25183;-88
2023/08/18 04:32:25;;;;;;;5.87;1.90;;;15.70;99.90;;;;;;1905336;75;25268;-88
2023/08/18 04:35:13;;;;;;;2.53;1.70;;;15.50;99.90;;;;;;1891068;75;25223;-89
2023/08/18 04:38:05;;;;;;;10.27;2.73;;;15.50;99.90;;;;;;1881891;75;25173;-88
2023/08/18 04:40:59;;;;;;;3.23;1.90;;;15.50;99.90;;;;;;1900417;75;25315;-89
2023/08/18 04:43:49;;;;;;;4.17;2.00;;;15.50;99.90;;;;;;1873250;75;25221;-88
2023/08/18 04:46:39;;;;;;;2.33;1.70;;;15.50;99.90;;;;;;1873045;76;25355;-88
2023/08/18 04:49:27;;;;;;;2.20;1.67;;;15.50;99.90;;;;;;1865746;76;25669;-89
2023/08/18 04:52:16;;;;;;;1.63;1.57;;;15.50;99.90;;;;;;1874085;75;25234;-89
2023/08/18 04:55:06;;;;;;;1.90;1.63;;;15.40;99.90;;;;;;1873181;76;25491;-89
2023/08/18 04:57:55;;;;;;;2.07;1.90;;;15.50;99.90;;;;;;1858017;76;25227;-88
2023/08/18 05:03:58;;;;;;;2.80;1.87;;;15.50;99.90;;;;;;1963518;71;27636;-89
2023/08/18 05:06:47;;;;;;;2.90;1.60;;;15.50;99.90;;;;;;1988049;72;25775;-89
2023/08/18 05:09:37;;;;;;;3.33;1.60;;;15.50;99.90;;;;;;1990002;70;25176;-89
2023/08/18 05:15:13;;;;;;;3.57;1.70;;;15.50;99.90;;;;;;1952715;72;27481;-88
2023/08/18 05:33:55;;;;;;;1.60;1.50;;;15.40;99.90;;;;;;1942953;72;27019;-88
2023/08/18 05:50:22;;;;;;;2.70;1.50;;;15.40;99.90;;;;;;1824434;77;26448;-88
2023/08/18 05:56:05;;;;;;;8.00;1.70;;;15.50;99.90;;;;;;1944121;72;27392;-88
2023/08/18 05:58:54;;;;;;;3.13;1.20;;;15.50;99.90;;;;;;1917987;73;25247;-88
2023/08/18 06:01:44;;;;;;;4.30;1.50;;;15.60;99.90;;;;;;1931604;72;25751;-88
2023/08/18 06:04:33;;;;;;;3.30;1.80;;;15.60;99.90;;;;;;1917021;73;25251;-88
2023/08/18 06:07:25;;;;;;;3.90;1.57;;;15.60;99.90;;;;;;1917633;73;25647;-88
2023/08/18 06:10:13;;;;;;;1.30;1.20;;;15.60;99.90;;;;;;1916510;73;25258;-88
2023/08/18 06:13:02;;;;;;;3.87;1.37;;;15.70;99.90;;;;;;1932158;73;25286;-88
2023/08/18 06:29:19;;;;;;;5.20;1.43;;;15.90;99.90;;;;;;1863122;72;27142;-88
2023/08/18 06:34:50;;;;;;;1.83;1.20;;;16.60;99.90;;;;;;1931858;72;26943;-88
2023/08/18 06:37:39;;;;;;;2.67;1.13;;;16.70;99.90;;;;;;1905426;75;25636;-88
2023/08/18 06:40:27;;;;;;;2.30;1.47;;;16.70;99.90;;;;;;1907594;74;25351;-88
2023/08/18 06:43:16;;;;;;;1.10;1.10;;;16.60;99.90;;;;;;1882681;75;25806;-87
2023/08/18 06:46:06;;;;;;;2.00;1.10;;;16.50;99.90;;;;;;1859093;76;25779;-87
2023/08/18 06:48:55;;;;;;;1.43;0.93;;;16.40;99.90;;;;;;1882911;76;25740;-87
2023/08/18 06:51:43;;;;;;;1.87;0.77;;;16.40;99.90;;;;;;1871879;75;25395;-87
2023/08/18 06:57:19;;;;;;;3.70;1.40;;;16.40;99.90;;;;;;1948429;72;27048;-89
2023/08/18 07:03:25;;;;;;;4.67;1.30;;;16.40;99.90;;;;;;1946074;72;26982;-88
2023/08/18 07:10:05;;;;;;;3.40;1.30;;;16.30;99.90;;;;;;2011740;70;26708;-88
2023/08/18 07:12:54;;;;;;;3.57;1.30;;;16.40;99.90;;;;;;1911083;74;25269;-88
2023/08/18 07:18:33;;;;;;;2.50;1.40;;;16.50;99.90;;;;;;1963193;72;26869;-87
2023/08/18 07:24:03;;;;;;;1.37;1.20;;;16.60;99.90;;;;;;1951084;72;27064;-87
2023/08/18 07:26:53;;;;;;;1.90;1.40;;;16.70;99.90;;;;;;1901312;75;25271;-88
2023/08/18 07:29:41;;;;;;;1.27;1.10;;;16.70;99.90;;;;;;1915835;75;25207;-88
2023/08/18 07:35:24;;;;;;;1.40;1.30;;;17.10;99.90;;;;;;1943227;72;26944;-88
2023/08/18 07:38:12;;;;;;;2.27;1.20;;;17.20;99.90;;;;;;1920153;73;25221;-87
2023/08/18 07:41:01;;;;;;;1.37;1.20;;;17.10;99.90;;;;;;1922598;73;25256;-87
2023/08/18 07:43:50;;;;;;;4.47;1.20;;;16.90;99.90;;;;;;1901407;74;25278;-88
2023/08/18 07:46:39;;;;;;;3.70;1.10;;;17.00;99.90;;;;;;1909267;74;25215;-88
2023/08/18 07:49:28;;;;;;;1.43;1.20;;;17.10;99.90;;;;;;1898882;75;25621;-88
2023/08/18 07:52:17;;;;;;;1.43;1.20;;;17.10;99.90;;;;;;1894414;74;25176;-87
2023/08/18 07:55:08;;;;;;;2.10;1.10;;;17.10;99.90;;;;;;1910029;74;25261;-88
2023/08/18 07:57:56;;;;;;;1.70;1.20;;;17.10;99.90;;;;;;1916883;74;25635;-88
2023/08/18 08:03:25;;;;;;;2.57;1.23;;;17.10;99.90;;;;;;1944786;72;26705;-87
2023/08/18 08:06:14;;;;;;;1.90;1.00;;;17.20;99.90;;;;;;1934223;72;25293;-87
2023/08/18 08:09:04;;;;;;;1.40;1.07;;;17.40;99.90;;;;;;1936812;73;25283;-87
2023/08/18 08:11:53;;;;;;;1.10;1.00;;;17.50;99.90;;;;;;1906598;73;25168;-88
2023/08/18 08:14:42;;;;;;;1.00;1.00;;;17.60;99.90;;;;;;1902575;75;25687;-88
2023/08/18 08:17:32;;;;;;;2.07;1.20;;;17.70;99.90;;;;;;1907992;75;25722;-88
2023/08/18 08:20:21;;;;;;;0.90;0.90;;;17.60;99.90;;;;;;1895226;75;25295;-88
2023/08/18 08:25:53;;;;;;;2.00;1.20;;;17.60;99.90;;;;;;1888372;74;27114;-88
2023/08/18 08:31:23;;;;;;;4.40;1.33;;;17.70;99.90;;;;;;1920892;72;26976;-88
2023/08/18 08:34:12;;;;;;;1.00;1.00;;;17.70;99.90;;;;;;1901892;74;25305;-88
2023/08/18 08:37:01;;;;;;;2.30;1.20;;;17.60;99.90;;;;;;1873737;76;25558;-89
2023/08/18 08:53:53;;;;;;;1.40;0.90;;;17.60;99.90;;;;;;1940191;72;26873;-88
2023/08/18 08:56:43;;;;;;;1.20;1.10;;;18.00;99.90;;;;;;1927811;73;25260;-88
2023/08/18 08:59:32;;;;;;;1.20;1.10;;;18.00;99.90;;;;;;1928822;72;25231;-88
2023/08/18 09:02:22;;;;;;;2.30;1.33;;;18.00;99.90;;;;;;1941133;73;25326;-88
2023/08/18 09:05:11;;;;;;;1.80;1.10;;;18.10;99.90;;;;;;1927038;73;25807;-88
2023/08/18 09:08:00;;;;;;;2.77;1.10;;;18.30;99.90;;;;;;1876799;75;25241;-88
2023/08/18 09:10:50;;;;;;;2.33;1.00;;;18.20;99.90;;;;;;1904960;73;25294;-88
2023/08/18 09:16:18;;;;;;;1.03;1.00;;;18.30;99.90;;;;;;1943524;72;26957;-88
2023/08/18 09:19:09;;;;;;;1.93;1.20;;;18.20;99.90;;;;;;1928603;73;25242;-87
2023/08/18 09:22:00;;;;;;;2.77;1.27;;;18.10;99.90;;;;;;1923912;73;25692;-88
2023/08/18 09:27:42;;;;;;;1.30;1.20;;;18.30;99.90;;;;;;1960149;72;26549;-88
2023/08/18 09:43:39;;;;;;;1.10;1.10;;;18.10;99.90;;;;;;1851759;76;27011;-88
2023/08/18 09:49:16;;;;;;;1.00;1.00;;;18.20;99.90;;;;;;1962377;72;26966;-88
2023/08/18 10:05:33;;;;;;;2.20;1.17;;;18.40;99.90;;;;;;1915356;73;27051;-89
2023/08/18 10:11:08;;;;;;;3.13;1.37;;;18.50;99.90;;;;;;1961494;72;27618;-87
2023/08/18 10:13:57;;;;;;;2.20;1.20;;;18.50;99.90;;;;;;1898250;75;25678;-88
2023/08/18 10:16:48;;;;;;;2.03;1.30;;;18.60;99.90;;;;;;1875042;75;25319;-87
2023/08/18 10:19:52;;;;;;;1.10;1.10;;;18.70;99.90;;;;;;1905294;73;25524;-87
2023/08/18 10:22:43;;;;;;;3.07;1.40;;;18.80;99.90;;;;;;1895339;75;25283;-88
2023/08/18 10:25:35;;;;;;;2.03;1.17;;;18.90;99.90;;;;;;1888719;75;25343;-88
2023/08/18 10:31:22;;;;;;;2.63;1.30;;;19.00;99.90;;;;;;1959098;71;27204;-88
2023/08/18 10:34:12;;;;;;;2.30;1.27;;;19.00;99.90;;;;;;1891996;74;25696;-88
2023/08/18 10:37:03;;;;;;;1.33;1.20;;;19.00;99.90;;;;;;1909554;74;25736;-88
2023/08/18 10:39:53;;;;;;;2.80;1.10;;;18.90;99.90;;;;;;1890583;74;25228;-88
2023/08/18 10:42:42;;;;;;;2.27;1.13;;;18.80;99.90;;;;;;1882268;75;25663;-88
2023/08/18 10:45:31;;;;;;;1.43;1.20;;;18.90;99.90;;;;;;1881185;75;25705;-88
2023/08/18 10:48:20;;;;;;;1.67;1.30;;;19.00;99.90;;;;;;1875511;75;25221;-88
2023/08/18 10:51:08;;;;;;;2.10;1.07;;;19.10;99.90;;;;;;1885457;75;25706;-88
2023/08/18 10:53:57;;;;;;;1.20;1.17;;;19.20;99.90;;;;;;1876333;75;25785;-88
2023/08/18 10:56:46;;;;;;;2.87;1.20;;;19.10;99.90;;;;;;1873641;75;25324;-88
2023/08/18 10:59:35;;;;;;;2.37;1.17;;;19.00;99.90;;;;;;1868766;75;25274;-88
2023/08/18 11:02:24;;;;;;;1.23;1.13;;;18.90;99.90;;;;;;1884599;75;25753;-88
2023/08/18 11:05:13;;;;;;;2.40;1.00;;;18.90;99.90;;;;;;1878291;75;25221;-88
2023/08/18 11:08:03;;;;;;;2.07;1.30;;;19.00;99.90;;;;;;1871610;75;25256;-88
2023/08/18 11:14:08;;;;;;;1.20;1.07;;;19.20;99.90;;;;;;2068877;68;26292;-88
2023/08/18 11:16:57;;;;;;;2.13;1.10;;;19.20;99.90;;;;;;1998022;72;25144;-88
2023/08/18 11:19:46;;;;;;;1.27;1.17;;;19.20;99.90;;;;;;1998863;71;25234;-88
2023/08/18 11:22:37;;;;;;;4.20;1.10;;;19.30;99.90;;;;;;2004018;71;25244;-88
2023/08/18 11:28:12;;;;;;;1.20;1.10;;;19.60;99.90;;;;;;1951007;72;26928;-88
2023/08/18 11:44:32;;;;;;;2.60;0.80;;;20.00;99.90;;;;;;1968288;72;26994;-88
2023/08/18 11:47:22;;;;;;;1.43;0.90;;;19.80;99.90;;;;;;1926074;73;25303;-88
2023/08/18 11:50:19;;;;;;;0.83;0.83;;;19.80;99.90;;;;;;1917819;73;25736;-88
2023/08/18 11:53:04;;;;;;;1.00;1.00;;;19.90;99.90;;;;;;1937173;73;25296;-88
2023/08/18 11:59:21;;;;;;;1.33;1.03;;;20.30;99.90;;;;;;2003430;71;27105;-87
2023/08/18 12:02:09;;;;;;;1.97;1.10;;;20.00;99.90;;;;;;1990640;70;26440;-88
2023/08/18 12:04:58;;;;;;;1.07;1.00;;;19.90;99.90;;;;;;1988804;71;25165;-88
2023/08/18 12:07:46;;;;;;;0.90;0.80;;;20.00;99.90;;;;;;1982782;71;25144;-88
2023/08/18 12:13:55;;;;;;;1.17;0.83;;;19.90;99.90;;;;;;1950909;72;27074;-88
2023/08/18 12:16:44;;;;;;;1.90;1.10;;;20.00;99.90;;;;;;1910522;75;25662;-88
2023/08/18 12:22:19;;;;;;;2.50;1.00;;;20.40;99.90;;;;;;1954805;72;27434;-88
2023/08/18 12:28:04;;;;;;;1.27;0.90;;;20.50;99.90;;;;;;1931206;74;27460;-88
2023/08/18 12:30:53;;;;;;;0.83;0.83;;;20.60;99.90;;;;;;1850027;76;25685;-88
2023/08/18 12:33:44;;;;;;;1.20;1.10;;;20.40;99.90;;;;;;1834730;76;25298;-88
2023/08/18 12:36:33;;;;;;;1.00;0.90;;;20.40;99.90;;;;;;1872509;76;25285;-89
2023/08/18 12:39:22;;;;;;;1.90;1.00;;;20.60;99.90;;;;;;1864480;76;25254;-88
2023/08/18 12:42:11;;;;;;;0.80;0.80;;;20.60;99.90;;;;;;1858287;76;25257;-89
2023/08/18 12:44:59;;;;;;;0.90;0.90;;;20.70;99.90;;;;;;1880146;75;25698;-89
2023/08/18 12:47:49;;;;;;;1.90;0.80;;;20.90;99.90;;;;;;1887116;75;25333;-88
2023/08/18 12:50:38;;;;;;;6.13;0.83;;;20.90;99.90;;;;;;1880899;75;25373;-89
2023/08/18 12:53:26;;;;;;;0.80;0.80;;;20.70;99.90;;;;;;1880114;75;25241;-89
2023/08/18 12:59:08;;;;;;;0.80;0.80;;;20.60;99.90;;;;;;1954205;72;27497;-88
2023/08/18 13:01:57;;;;;;;0.90;0.90;;;20.40;99.90;;;;;;1927125;73;25237;-88
2023/08/18 13:04:46;;;;;;;1.00;1.00;;;20.40;99.90;;;;;;1926123;73;25294;-88
2023/08/18 13:07:35;;;;;;;1.40;0.90;;;20.40;99.90;;;;;;1929905;73;25831;-88
2023/08/18 13:13:05;;;;;;;0.80;0.80;;;20.40;99.90;;;;;;1886536;74;27105;-88
2023/08/18 13:15:54;;;;;;;2.60;0.80;;;20.50;99.90;;;;;;1841045;77;25231;-88
2023/08/18 13:18:43;;;;;;;0.70;0.70;;;20.50;99.90;;;;;;1866143;76;25241;-87
2023/08/18 13:21:31;;;;;;;0.80;0.80;;;20.50;99.90;;;;;;1834590;77;25266;-88
2023/08/18 13:24:20;;;;;;;0.77;0.77;;;20.30;99.90;;;;;;1828581;77;25248;-87
2023/08/18 13:27:09;;;;;;;3.47;0.70;;;20.30;99.90;;;;;;1831542;77;25277;-87
2023/08/18 13:29:57;;;;;;;0.60;0.60;;;20.30;99.90;;;;;;1833895;77;25171;-87
2023/08/18 13:35:30;;;;;;;1.80;0.80;;;20.30;99.90;;;;;;1923951;72;27031;-88
2023/08/18 13:38:19;;;;;;;0.80;0.80;;;20.20;99.90;;;;;;1909160;74;25248;-88
2023/08/18 13:44:02;;;;;;;0.60;0.60;;;20.30;99.90;;;;;;1952861;72;27015;-88
2023/08/18 13:46:51;;;;;;;0.90;0.90;;;20.40;99.90;;;;;;1925063;73;25264;-88
2023/08/18 13:49:40;;;;;;;0.63;0.63;;;20.30;99.90;;;;;;1919206;73;25750;-88
2023/08/18 14:05:47;;;;;;;1.80;0.70;;;20.40;99.90;;;;;;1963815;70;26717;-88
2023/08/18 14:08:36;;;;;;;0.70;0.70;;;20.50;99.90;;;;;;1902943;75;25274;-87
2023/08/18 14:11:26;;;;;;;1.73;0.80;;;20.60;99.90;;;;;;1907773;75;25225;-88
2023/08/18 14:14:14;;;;;;;0.70;0.70;;;20.60;99.90;;;;;;1914257;75;25218;-88
2023/08/18 14:22:54;;;;;;;0.80;0.80;;;20.80;99.90;;;;;;1869338;75;26910;-88
2023/08/18 14:25:43;;;;;;;1.57;0.70;;;20.60;99.90;;;;;;1832462;78;25196;-88
2023/08/18 14:42:58;;;;;;;1.90;0.80;;;20.60;99.90;;;;;;1898719;74;26409;-89
2023/08/18 14:48:26;;;;;;;0.70;0.70;;;20.70;99.90;;;;;;1969413;72;26890;-88
2023/08/18 14:51:35;;;;;;;0.70;0.70;;;20.70;99.90;;;;;;1906792;73;25250;-88
2023/08/18 14:54:24;;;;;;;0.90;0.90;;;20.70;99.90;;;;;;1924091;73;25272;-88
2023/08/18 14:57:15;;;;;;;1.33;0.90;;;20.60;99.90;;;;;;1937185;73;25261;-88
2023/08/18 15:00:05;;;;;;;0.90;0.90;;;20.60;99.90;;;;;;1939371;73;25173;-88
2023/08/18 15:09:26;;;;;;;0.90;0.90;;;20.50;99.90;;;;;;1926594;72;27675;-88
2023/08/18 15:12:15;;;;;;;1.00;0.90;;;20.40;99.90;;;;;;1860831;76;25269;-89
2023/08/18 15:15:04;;;;;;;3.17;0.90;;;20.40;99.90;;;;;;1842067;77;25265;-89
2023/08/18 15:18:00;;;;;;;2.07;0.90;;;20.60;99.90;;;;;;1899610;75;25255;-88
2023/08/18 15:20:50;;;;;;;2.63;1.00;;;20.60;99.90;;;;;;1901170;75;25279;-88
2023/08/18 15:23:39;;;;;;;0.87;0.87;;;20.60;99.90;;;;;;1910214;74;25917;-88
2023/08/18 15:30:18;;;;;;;1.50;0.90;;;20.40;99.90;;;;;;1980939;71;26726;-87
2023/08/18 15:33:07;;;;;;;0.87;0.87;;;20.40;99.90;;;;;;1972415;72;25204;-89
2023/08/18 15:35:56;;;;;;;1.10;0.90;;;20.40;99.90;;;;;;2044925;69;25189;-89
2023/08/18 15:38:45;;;;;;;1.30;1.00;;;20.40;99.90;;;;;;2038598;69;25146;-90
2023/08/18 15:41:36;;;;;;;2.43;0.90;;;20.40;99.90;;;;;;2048296;69;25215;-89
2023/08/18 15:47:07;;;;;;;2.40;1.40;;;20.20;99.90;;;;;;1884250;74;27456;-89
2023/08/18 15:49:56;;;;;;;1.10;1.00;;;20.20;99.90;;;;;;1825308;77;25386;-88
2023/08/18 15:55:43;;;;;;;0.90;0.90;;;20.10;99.90;;;;;;1957990;72;27420;-88
2023/08/18 15:58:28;;;;;;;1.37;0.90;;;20.10;99.90;;;;;;1917166;73;25189;-88
2023/08/18 16:01:17;;;;;;;2.77;1.17;;;20.20;99.90;;;;;;1915883;73;25660;-88
2023/08/18 16:04:07;;;;;;;2.17;1.07;;;20.10;99.90;;;;;;1929357;73;25652;-89
2023/08/18 16:06:56;;;;;;;1.10;1.00;;;20.20;99.90;;;;;;1917167;73;25317;-89
2023/08/18 16:09:44;;;;;;;2.57;1.10;;;20.20;99.90;;;;;;1922136;73;25710;-88
2023/08/18 16:12:33;;;;;;;2.10;1.07;;;20.20;99.90;;;;;;1922218;73;25772;-88
2023/08/18 16:15:21;;;;;;;2.30;1.20;;;20.30;99.90;;;;;;1896521;75;25242;-88
2023/08/18 16:18:10;;;;;;;1.40;0.90;;;20.40;99.90;;;;;;1880276;75;25642;-88
2023/08/18 16:20:59;;;;;;;5.23;1.10;;;20.30;99.90;;;;;;1880260;75;25170;-88
2023/08/18 16:23:48;;;;;;;1.13;1.10;;;20.30;99.90;;;;;;1873740;75;25214;-88
2023/08/18 16:29:50;;;;;;;1.77;1.10;;;20.20;99.90;;;;;;1991453;71;27321;-88
2023/08/18 16:36:25;;;;;;;5.00;1.40;;;20.10;99.90;;;;;;1978566;71;26989;-89
2023/08/18 16:40:10;;;;;;;0.80;0.80;;;20.20;99.90;;;;;;1945088;73;25256;-88
2023/08/18 16:42:59;;;;;;;1.27;1.17;;;20.10;99.90;;;;;;1991355;70;25239;-89
2023/08/18 16:45:47;;;;;;;3.53;1.10;;;20.00;99.90;;;;;;2002909;70;25907;-89
2023/08/18 16:48:36;;;;;;;1.40;1.10;;;20.10;99.90;;;;;;2000050;70;25248;-89
2023/08/18 16:54:13;;;;;;;2.80;1.00;;;20.10;99.90;;;;;;1943792;72;27603;-87
2023/08/18 16:57:02;;;;;;;1.07;1.00;;;20.10;99.90;;;;;;1933180;73;25605;-88
2023/08/18 16:59:52;;;;;;;3.90;1.20;;;20.00;99.90;;;;;;1935643;73;25224;-88
2023/08/18 17:02:41;;;;;;;3.57;1.50;;;19.90;99.90;;;;;;1889662;75;25222;-88
2023/08/18 17:05:34;;;;;;;4.57;2.00;;;20.00;99.90;;;;;;1876570;76;25267;-87
2023/08/18 17:08:22;;;;;;;5.03;2.00;;;20.00;99.90;;;;;;1847998;77;25199;-87
2023/08/18 17:11:11;;;;;;;4.73;1.40;;;19.90;99.90;;;;;;1888622;75;25284;-88
2023/08/18 17:16:41;;;;;;;1.47;1.27;;;19.80;99.90;;;;;;1930591;72;27176;-88
2023/08/18 17:19:30;;;;;;;1.47;1.20;;;19.80;99.90;;;;;;1888359;75;25209;-88
2023/08/18 17:22:19;;;;;;;1.53;1.30;;;19.80;99.90;;;;;;1866966;76;25652;-88
2023/08/18 17:25:09;;;;;;;1.33;1.23;;;19.70;99.90;;;;;;1912487;74;25210;-88
2023/08/18 17:27:58;;;;;;;1.30;1.13;;;19.70;99.90;;;;;;1872613;76;25229;-88
2023/08/18 17:33:28;;;;;;;1.87;1.50;;;19.60;99.90;;;;;;1963781;71;27014;-88
2023/08/18 17:36:18;;;;;;;5.97;2.30;;;19.50;99.90;;;;;;1925756;73;25297;-88
2023/08/18 17:39:07;;;;;;;3.27;1.70;;;19.50;99.90;;;;;;1936817;73;25672;-88
2023/08/18 17:41:57;;;;;;;2.83;1.80;;;19.50;99.90;;;;;;1940035;73;25288;-88
2023/08/18 17:44:45;;;;;;;3.57;1.90;;;19.40;99.90;;;;;;1930628;73;25718;-88
2023/08/18 18:02:35;;;;;;;3.80;2.23;;;19.40;99.90;;;;;;2074632;68;27390;-88
2023/08/18 18:05:24;;;;;;;5.10;2.30;;;19.30;99.90;;;;;;2022496;69;25324;-88
2023/08/18 18:13:49;;;;;;;4.73;2.03;;;19.10;99.90;;;;;;1993270;71;27103;-88
2023/08/18 18:16:38;;;;;;;2.17;2.07;;;19.00;99.90;;;;;;1951130;72;25280;-88
2023/08/18 18:19:26;;;;;;;5.37;2.10;;;19.00;99.90;;;;;;1972654;72;25205;-88
2023/08/18 18:22:15;;;;;;;1.80;1.70;;;19.00;99.90;;;;;;1976360;71;25295;-88
2023/08/18 18:25:04;;;;;;;3.77;2.10;;;18.90;99.90;;;;;;1952309;72;25167;-89
2023/08/18 18:27:54;;;;;;;2.90;2.10;;;18.90;99.90;;;;;;1982788;72;25286;-88
2023/08/18 18:30:42;;;;;;;3.67;2.10;;;18.90;99.90;;;;;;1966111;72;25207;-88
2023/08/18 18:50:59;;;;;;;4.23;2.00;;;19.10;99.90;;;;;;1941854;72;26955;-88
2023/08/18 18:53:47;;;;;;;4.40;2.23;;;19.10;99.90;;;;;;1917370;73;25223;-88
2023/08/18 18:56:36;;;;;;;4.90;1.93;;;19.10;99.90;;;;;;1882559;75;25298;-89
2023/08/18 18:59:25;;;;;;;3.20;2.13;;;19.10;99.90;;;;;;1888395;75;25186;-88
2023/08/18 19:05:00;;;;;;;3.77;2.30;;;19.00;99.90;;;;;;1939743;72;27007;-88
2023/08/18 19:07:48;;;;;;;2.90;2.30;;;19.00;99.90;;;;;;1907154;75;25212;-89
2023/08/18 19:10:37;;;;;;;5.27;2.43;;;19.00;99.90;;;;;;1894493;75;25178;-88
2023/08/18 19:13:26;;;;;;;2.73;2.30;;;19.00;99.90;;;;;;1906087;75;25204;-89
2023/08/18 19:16:17;;;;;;;3.37;2.20;;;18.90;99.90;;;;;;1877249;75;25688;-88
2023/08/18 19:19:07;;;;;;;3.27;2.47;;;18.90;99.90;;;;;;1896944;73;25192;-88
2023/08/18 19:21:56;;;;;;;4.10;2.53;;;18.90;99.90;;;;;;1881042;75;25332;-88
2023/08/18 19:24:46;;;;;;;3.40;2.33;;;18.90;99.90;;;;;;1880346;75;26560;-88
2023/08/18 19:27:36;;;;;;;2.80;2.47;;;19.00;99.90;;;;;;1896574;75;25670;-88
2023/08/18 19:35:15;;;;;;;6.20;2.30;;;19.10;99.90;;;;;;1974870;71;27515;-88
2023/08/18 19:38:05;;;;;;;6.27;2.30;;;19.10;99.90;;;;;;1981076;72;25216;-88
2023/08/18 19:40:55;;;;;;;2.60;2.30;;;19.10;99.90;;;;;;1963404;72;25309;-88
2023/08/18 19:43:44;;;;;;;6.53;2.30;;;19.00;99.90;;;;;;2014060;70;25158;-88
2023/08/18 19:46:33;;;;;;;7.23;2.17;;;19.10;99.90;;;;;;1990006;70;25702;-88
2023/08/18 19:49:23;;;;;;;5.47;2.47;;;19.10;99.90;;;;;;2021925;70;25698;-88
2023/08/18 19:52:12;;;;;;;3.20;2.23;;;19.10;99.90;;;;;;2019135;70;25212;-88
2023/08/18 19:55:00;;;;;;;2.40;2.20;;;19.00;99.90;;;;;;2017609;70;25313;-89
2023/08/18 19:57:50;;;;;;;3.17;2.00;;;19.10;99.90;;;;;;2000450;70;25240;-88
2023/08/18 20:00:39;;;;;;;5.10;2.00;;;19.10;99.90;;;;;;1999077;70;25226;-89
2023/08/18 20:03:29;;;;;;;2.27;2.10;;;19.10;99.90;;;;;;1993912;70;25180;-88
2023/08/18 20:06:17;;;;;;;2.40;2.20;;;19.10;99.90;;;;;;2004571;70;25135;-88
2023/08/18 20:11:50;;;;;;;5.47;2.33;;;19.10;99.90;;;;;;1939003;72;27071;-88
2023/08/18 20:14:38;;;;;;;2.53;2.17;;;19.10;99.90;;;;;;1912791;73;25755;-88
2023/08/18 20:20:49;;;;;;;14.57;2.53;;;19.10;99.90;;;;;;2000946;71;26356;-87
2023/08/18 20:23:39;;;;;;;3.37;2.47;;;19.10;99.90;;;;;;1930206;73;25254;-88
2023/08/18 20:29:20;;;;;;;4.00;2.70;;;19.10;99.90;;;;;;1949039;72;26998;-88
2023/08/18 20:32:15;;;;;;;3.70;2.40;;;19.10;99.90;;;;;;1909936;73;25291;-87
2023/08/18 20:35:09;;;;;;;4.40;2.67;;;19.10;99.90;;;;;;1922786;73;25707;-87
2023/08/18 20:37:58;;;;;;;2.90;2.40;;;19.10;99.90;;;;;;1918078;73;25283;-88
2023/08/18 20:40:46;;;;;;;3.10;2.30;;;19.10;99.90;;;;;;1935474;73;25259;-87
2023/08/18 20:43:36;;;;;;;4.03;2.30;;;19.10;99.90;;;;;;1857894;75;25205;-88
2023/08/18 20:46:26;;;;;;;3.30;2.30;;;19.10;99.90;;;;;;1887469;75;25725;-87
2023/08/18 20:49:17;;;;;;;4.23;2.90;;;19.10;99.90;;;;;;1905243;75;25307;-87
2023/08/18 20:52:07;;;;;;;5.20;2.83;;;19.00;99.90;;;;;;1889816;75;25300;-87
2023/08/18 20:54:57;;;;;;;2.93;2.60;;;19.00;99.90;;;;;;1893136;74;25229;-88